KAXS/AXS METAR and TAF weather

Enter ICAO airport designator
Station Type Date Time Source
KAXS METAR 2020/09/22 16:35 UTC NOAA

KAXS 221635Z AUTO 00000KT 10SM SCT015 22/17 A3016 RMK AO2 T02190165


Station Type Date Time Source
KAXS Decoded METAR 2020/09/22 16:35 UTC NOAA

Altus, Altus/Quartz Mountain Regional Airport, OK, United States (KAXS) 34-41-55N 099-20-17W
Sep 22, 2020 - 12:35 PM EDT / 2020.09.22 1635 UTC
Wind: Calm:0
Visibility: 10 mile(s):0
Sky conditions: partly cloudy
Temperature: 71.4 F (21.9 C)
Dew Point: 61.7 F (16.5 C)
Relative Humidity: 71%
Pressure (altimeter): 30.16 in. Hg (1021 hPa)
ob: KAXS 221635Z AUTO 00000KT 10SM SCT015 22/17 A3016 RMK AO2 T02190165
cycle: 16

Station Type Date Time Source
KAXS TAF UTC NOAA

Error!

Example: see airport list